Time;durP1;ratioP1;P1;durP2;ratioP2;P2;SDS_P1;SDS_P2;PMS_P1;PMS_P2;Temp;Humidity;BMP_temperature;BMP_pressure;BME280_temperature;BME280_humidity;BME280_pressure;Samples;Min_cycle;Max_cycle;Signal;HPM_P1;HPM_P2
2022/01/20 00:01:13;;;;;;;3.85;2.70;;;;;;;;;;5077772;28;20127;-77
2022/01/20 00:03:41;;;;;;;3.60;2.97;;;;;;;;;;5077915;28;20110;-77
2022/01/20 00:28:16;;;;;;;3.63;2.60;;;;;;;;;;5076390;28;20117;-77
2022/01/20 00:30:51;;;;;;;10.57;9.32;;;;;;;;;;5076931;28;20040;-77
2022/01/20 00:33:32;;;;;;;3.53;2.80;;;;;;;;;;5076590;28;20121;-77
2022/01/20 00:38:34;;;;;;;3.65;2.70;;;;;;;;;;5076425;28;20036;-77
2022/01/20 00:41:01;;;;;;;4.43;2.95;;;;;;;;;;5076720;28;20487;-77
2022/01/20 00:43:27;;;;;;;4.03;3.13;;;;;;;;;;5076632;28;20036;-77
2022/01/20 00:45:54;;;;;;;3.58;3.03;;;;;;;;;;5076590;28;20033;-77
2022/01/20 00:48:20;;;;;;;3.75;2.60;;;;;;;;;;5076331;28;20583;-76
2022/01/20 00:50:46;;;;;;;3.83;2.67;;;;;;;;;;5076591;28;20037;-77
2022/01/20 00:53:13;;;;;;;3.58;2.55;;;;;;;;;;5076435;28;20043;-77
2022/01/20 00:55:39;;;;;;;3.42;2.50;;;;;;;;;;5076407;28;20089;-77
2022/01/20 00:58:06;;;;;;;3.80;2.70;;;;;;;;;;5076248;28;20044;-76
2022/01/20 01:00:32;;;;;;;3.80;2.80;;;;;;;;;;5076099;28;20040;-76
2022/01/20 01:02:59;;;;;;;3.97;3.15;;;;;;;;;;5075823;28;20471;-76
2022/01/20 01:05:27;;;;;;;3.85;2.88;;;;;;;;;;5076193;28;20029;-77
2022/01/20 01:07:55;;;;;;;3.42;2.60;;;;;;;;;;5076693;28;20040;-76
2022/01/20 01:10:21;;;;;;;3.40;2.70;;;;;;;;;;5075463;28;20033;-76
2022/01/20 01:12:59;;;;;;;4.28;3.08;;;;;;;;;;5076059;28;20483;-77
2022/01/20 01:15:36;;;;;;;4.97;3.25;;;;;;;;;;5076027;28;20044;-76
2022/01/20 01:23:37;;;;;;;3.97;2.63;;;;;;;;;;5076236;28;20033;-76
2022/01/20 01:26:13;;;;;;;3.63;2.85;;;;;;;;;;5075853;28;20090;-76
2022/01/20 01:28:40;;;;;;;4.88;3.20;;;;;;;;;;5076149;28;20040;-76
2022/01/20 01:31:30;;;;;;;4.38;3.20;;;;;;;;;;5075677;28;20064;-76
2022/01/20 01:34:00;;;;;;;6.20;4.15;;;;;;;;;;5068298;28;20032;-76
2022/01/20 01:36:29;;;;;;;6.15;4.18;;;;;;;;;;5074910;28;20040;-77
2022/01/20 01:38:55;;;;;;;6.22;4.25;;;;;;;;;;5075547;28;20372;-77
2022/01/20 01:41:32;;;;;;;9.02;5.47;;;;;;;;;;5075771;28;20036;-76
2022/01/20 01:44:02;;;;;;;9.38;7.47;;;;;;;;;;5075370;28;20036;-77
2022/01/20 01:46:28;;;;;;;8.30;4.70;;;;;;;;;;5075446;28;20044;-77
2022/01/20 01:48:56;;;;;;;6.97;5.25;;;;;;;;;;5075106;28;20036;-76
2022/01/20 01:51:23;;;;;;;7.20;4.47;;;;;;;;;;5075665;28;20483;-76
2022/01/20 01:53:49;;;;;;;6.78;4.70;;;;;;;;;;5075505;28;20039;-77
2022/01/20 01:56:15;;;;;;;7.32;5.13;;;;;;;;;;5075778;28;20036;-77
2022/01/20 01:58:41;;;;;;;7.95;5.80;;;;;;;;;;5075054;28;20101;-77
2022/01/20 02:01:08;;;;;;;8.98;5.85;;;;;;;;;;5075664;28;20047;-77
2022/01/20 02:03:44;;;;;;;9.95;5.45;;;;;;;;;;5075222;28;20029;-77
2022/01/20 02:09:37;;;;;;;8.90;6.05;;;;;;;;;;5052644;28;20044;-77
2022/01/20 02:20:23;;;;;;;8.15;6.03;;;;;;;;;;5074559;28;20037;-77
2022/01/20 02:22:51;;;;;;;8.82;5.20;;;;;;;;;;5074520;28;20115;-76
2022/01/20 02:25:18;;;;;;;8.23;4.93;;;;;;;;;;5074711;28;20105;-76
2022/01/20 02:27:45;;;;;;;7.47;4.65;;;;;;;;;;5075011;28;20072;-77
2022/01/20 02:30:11;;;;;;;6.85;4.78;;;;;;;;;;5074768;28;20045;-76
2022/01/20 02:32:37;;;;;;;6.38;4.63;;;;;;;;;;5073875;28;20032;-76
2022/01/20 02:35:07;;;;;;;17.88;14.90;;;;;;;;;;5074475;28;20067;-77
2022/01/20 02:37:33;;;;;;;7.00;5.15;;;;;;;;;;5073948;28;20036;-76
2022/01/20 02:45:29;;;;;;;7.97;5.38;;;;;;;;;;5074018;28;20044;-77
2022/01/20 02:47:55;;;;;;;8.20;6.32;;;;;;;;;;5074530;28;20032;-76
2022/01/20 02:50:21;;;;;;;7.60;6.07;;;;;;;;;;5074440;28;20037;-77
2022/01/20 02:52:47;;;;;;;8.27;6.25;;;;;;;;;;5074536;28;20110;-76
2022/01/20 02:55:13;;;;;;;9.77;6.45;;;;;;;;;;5074426;28;20471;-77
2022/01/20 02:57:39;;;;;;;9.30;7.43;;;;;;;;;;5074568;28;20032;-76
2022/01/20 03:00:07;;;;;;;8.23;6.03;;;;;;;;;;5074390;28;20112;-77
2022/01/20 03:02:33;;;;;;;7.88;6.22;;;;;;;;;;5074692;28;20047;-76
2022/01/20 03:04:59;;;;;;;8.43;5.88;;;;;;;;;;5074172;28;20039;-76
2022/01/20 03:07:26;;;;;;;7.10;5.95;;;;;;;;;;5074227;28;20092;-76
2022/01/20 03:09:52;;;;;;;8.25;6.03;;;;;;;;;;5074480;28;20064;-76
2022/01/20 03:12:18;;;;;;;7.10;5.13;;;;;;;;;;5073986;28;20036;-77
2022/01/20 03:14:44;;;;;;;7.13;5.30;;;;;;;;;;5073907;28;20547;-76
2022/01/20 03:17:12;;;;;;;6.65;5.22;;;;;;;;;;5073854;28;20072;-77
2022/01/20 03:19:38;;;;;;;5.88;4.85;;;;;;;;;;5073723;28;20043;-77
2022/01/20 03:22:04;;;;;;;5.07;4.15;;;;;;;;;;5073874;28;20514;-77
2022/01/20 03:24:30;;;;;;;6.00;3.63;;;;;;;;;;5074055;28;20044;-76
2022/01/20 03:26:56;;;;;;;4.75;3.00;;;;;;;;;;5074126;28;20036;-77
2022/01/20 03:29:22;;;;;;;5.97;3.38;;;;;;;;;;5074174;28;20064;-76
2022/01/20 03:31:49;;;;;;;5.07;3.35;;;;;;;;;;5074107;28;20032;-76
2022/01/20 03:34:15;;;;;;;4.22;3.30;;;;;;;;;;5073892;28;20032;-77
2022/01/20 03:36:41;;;;;;;5.63;3.72;;;;;;;;;;5073708;28;20025;-77
2022/01/20 03:39:07;;;;;;;5.00;4.15;;;;;;;;;;5074185;28;20471;-76
2022/01/20 03:41:35;;;;;;;4.45;3.40;;;;;;;;;;5073904;28;20028;-77
2022/01/20 03:44:01;;;;;;;4.72;3.53;;;;;;;;;;5077791;28;20483;-76
2022/01/20 03:46:27;;;;;;;4.43;3.40;;;;;;;;;;5077665;28;20036;-77
2022/01/20 03:48:56;;;;;;;4.78;3.47;;;;;;;;;;5077506;28;20032;-77
2022/01/20 03:51:24;;;;;;;4.10;3.00;;;;;;;;;;5093249;28;20379;-76
2022/01/20 03:53:51;;;;;;;4.20;3.03;;;;;;;;;;5077370;28;20117;-77
2022/01/20 03:56:18;;;;;;;4.13;3.38;;;;;;;;;;5077226;28;20033;-76
2022/01/20 03:58:44;;;;;;;4.30;2.80;;;;;;;;;;5077362;28;20127;-77
2022/01/20 04:01:11;;;;;;;3.50;2.70;;;;;;;;;;5077015;28;20047;-77
2022/01/20 04:03:37;;;;;;;3.80;2.97;;;;;;;;;;5077154;28;20042;-77
2022/01/20 04:06:03;;;;;;;2.78;2.47;;;;;;;;;;5077012;28;20376;-77
2022/01/20 04:08:31;;;;;;;3.90;2.60;;;;;;;;;;5076967;28;20040;-76
2022/01/20 04:10:57;;;;;;;2.80;2.40;;;;;;;;;;5076923;28;20039;-76
2022/01/20 04:13:28;;;;;;;3.17;2.58;;;;;;;;;;5077279;28;20036;-76
2022/01/20 04:15:54;;;;;;;3.20;2.67;;;;;;;;;;5077563;28;20036;-77
2022/01/20 04:18:25;;;;;;;2.50;2.30;;;;;;;;;;5076877;28;20391;-76
2022/01/20 04:20:51;;;;;;;3.90;2.65;;;;;;;;;;5077470;28;20045;-77
2022/01/20 04:23:17;;;;;;;3.15;2.53;;;;;;;;;;5077312;28;20520;-77
2022/01/20 04:25:43;;;;;;;3.33;2.35;;;;;;;;;;5076995;28;20102;-76
2022/01/20 04:28:10;;;;;;;2.95;2.28;;;;;;;;;;5077471;28;20040;-76
2022/01/20 04:30:36;;;;;;;2.72;2.30;;;;;;;;;;5077304;28;20064;-76
2022/01/20 04:33:03;;;;;;;3.00;2.33;;;;;;;;;;5077035;28;20040;-76
2022/01/20 04:35:29;;;;;;;3.20;2.35;;;;;;;;;;5077093;28;20032;-76
2022/01/20 04:37:57;;;;;;;2.67;2.13;;;;;;;;;;5077000;28;20040;-76
2022/01/20 04:40:23;;;;;;;3.55;2.40;;;;;;;;;;5076761;28;20047;-77
2022/01/20 04:42:51;;;;;;;3.20;2.50;;;;;;;;;;5076622;28;20029;-77
2022/01/20 04:45:25;;;;;;;2.58;2.17;;;;;;;;;;5076826;28;20060;-76
2022/01/20 04:48:12;;;;;;;3.22;2.13;;;;;;;;;;5076533;28;20040;-77
2022/01/20 04:58:52;;;;;;;3.05;2.10;;;;;;;;;;5056127;28;20430;-77
2022/01/20 05:01:18;;;;;;;2.53;2.00;;;;;;;;;;5064540;28;20044;-77
2022/01/20 05:03:45;;;;;;;2.25;1.90;;;;;;;;;;5075608;28;20033;-77
2022/01/20 05:06:11;;;;;;;2.22;1.85;;;;;;;;;;5064571;28;20028;-77
2022/01/20 05:08:38;;;;;;;1.85;1.48;;;;;;;;;;5076445;28;20046;-77
2022/01/20 05:11:05;;;;;;;1.92;1.52;;;;;;;;;;5076264;28;20036;-77
2022/01/20 05:13:37;;;;;;;2.22;1.88;;;;;;;;;;5075985;28;20083;-77
2022/01/20 05:16:03;;;;;;;2.67;2.08;;;;;;;;;;5083498;28;20024;-76
2022/01/20 05:18:30;;;;;;;2.47;1.98;;;;;;;;;;5096473;28;20036;-77
2022/01/20 05:20:56;;;;;;;3.15;2.50;;;;;;;;;;5096586;28;20047;-76
2022/01/20 05:23:22;;;;;;;2.65;2.28;;;;;;;;;;5082484;28;20483;-77
2022/01/20 05:25:49;;;;;;;2.70;2.35;;;;;;;;;;5075818;28;20032;-77
2022/01/20 05:28:16;;;;;;;2.38;1.90;;;;;;;;;;5076063;28;20040;-77
2022/01/20 05:30:42;;;;;;;2.17;1.90;;;;;;;;;;5078948;28;20043;-77
2022/01/20 05:33:09;;;;;;;3.28;2.60;;;;;;;;;;5095427;28;20039;-76
2022/01/20 05:35:35;;;;;;;2.70;2.45;;;;;;;;;;5095756;28;20043;-76
2022/01/20 05:38:01;;;;;;;3.35;2.67;;;;;;;;;;5095802;28;20505;-76
2022/01/20 05:40:28;;;;;;;4.05;2.78;;;;;;;;;;5096262;28;20050;-76
2022/01/20 05:42:54;;;;;;;3.25;2.53;;;;;;;;;;5095809;28;20044;-76
2022/01/20 05:45:20;;;;;;;4.50;3.00;;;;;;;;;;5096030;28;20105;-76
2022/01/20 05:47:48;;;;;;;4.18;2.95;;;;;;;;;;5095592;28;20366;-76
2022/01/20 05:50:20;;;;;;;5.18;3.50;;;;;;;;;;5095816;28;20107;-77
2022/01/20 05:52:46;;;;;;;4.15;2.90;;;;;;;;;;5096679;28;20032;-75
2022/01/20 05:55:17;;;;;;;5.25;3.75;;;;;;;;;;5095832;28;20467;-77
2022/01/20 05:57:43;;;;;;;4.28;3.22;;;;;;;;;;5095484;28;20550;-76
2022/01/20 06:00:12;;;;;;;4.85;3.88;;;;;;;;;;5093850;28;20048;-77
2022/01/20 06:05:23;;;;;;;4.55;3.60;;;;;;;;;;5074746;28;20044;-76
2022/01/20 06:07:50;;;;;;;5.53;4.15;;;;;;;;;;5075317;28;20036;-76
2022/01/20 06:10:16;;;;;;;6.25;4.55;;;;;;;;;;5075219;28;20043;-76
2022/01/20 06:12:42;;;;;;;5.07;4.03;;;;;;;;;;5074994;28;20072;-76
2022/01/20 06:15:10;;;;;;;5.22;3.55;;;;;;;;;;5074469;28;20518;-76
2022/01/20 06:17:37;;;;;;;5.10;3.92;;;;;;;;;;5074400;28;20364;-76
2022/01/20 06:20:07;;;;;;;5.10;3.80;;;;;;;;;;5074062;28;20040;-75
2022/01/20 06:22:33;;;;;;;4.05;3.60;;;;;;;;;;5074626;28;20033;-76
2022/01/20 06:25:00;;;;;;;3.90;3.40;;;;;;;;;;5074332;28;20456;-76
2022/01/20 06:27:26;;;;;;;5.05;3.67;;;;;;;;;;5074110;28;20102;-76
2022/01/20 06:29:52;;;;;;;5.28;3.78;;;;;;;;;;5073752;28;20095;-76
2022/01/20 06:32:18;;;;;;;6.10;3.85;;;;;;;;;;5074656;28;20032;-76
2022/01/20 06:34:44;;;;;;;4.60;3.92;;;;;;;;;;5073252;28;20028;-76
2022/01/20 06:37:10;;;;;;;4.22;3.72;;;;;;;;;;5074582;28;20040;-76
2022/01/20 06:39:37;;;;;;;4.70;3.47;;;;;;;;;;5074868;28;20044;-76
2022/01/20 06:42:03;;;;;;;3.95;3.55;;;;;;;;;;5074534;28;20162;-76
2022/01/20 06:44:29;;;;;;;4.43;3.53;;;;;;;;;;5074550;28;20040;-76
2022/01/20 06:46:55;;;;;;;4.45;3.30;;;;;;;;;;5074255;28;20036;-76
2022/01/20 06:49:21;;;;;;;3.72;3.13;;;;;;;;;;5074825;28;20119;-76
2022/01/20 06:51:48;;;;;;;4.05;3.28;;;;;;;;;;5075070;28;20036;-76
2022/01/20 06:54:15;;;;;;;4.30;3.30;;;;;;;;;;5074577;28;20036;-75
2022/01/20 06:56:41;;;;;;;4.60;3.28;;;;;;;;;;5074261;28;20047;-75
2022/01/20 06:59:10;;;;;;;3.63;2.75;;;;;;;;;;5074143;28;20045;-75
2022/01/20 07:01:36;;;;;;;4.40;2.67;;;;;;;;;;5073975;28;20039;-75
2022/01/20 07:04:03;;;;;;;6.00;3.70;;;;;;;;;;5074680;28;20044;-75
2022/01/20 07:06:29;;;;;;;5.13;3.25;;;;;;;;;;5074405;28;20035;-75
2022/01/20 07:08:55;;;;;;;5.85;4.18;;;;;;;;;;5074074;28;20418;-75
2022/01/20 07:11:21;;;;;;;5.75;4.38;;;;;;;;;;5074053;28;20086;-75
2022/01/20 07:13:47;;;;;;;4.85;4.10;;;;;;;;;;5074162;28;20055;-75
2022/01/20 07:16:14;;;;;;;4.97;3.97;;;;;;;;;;5074573;28;20068;-75
2022/01/20 07:18:40;;;;;;;6.82;5.03;;;;;;;;;;5077241;28;20059;-75
2022/01/20 07:21:06;;;;;;;9.98;5.32;;;;;;;;;;5077573;28;20430;-75
2022/01/20 07:23:32;;;;;;;12.43;7.60;;;;;;;;;;5078483;28;20059;-75
2022/01/20 07:25:58;;;;;;;11.68;7.68;;;;;;;;;;5078184;28;20082;-75
2022/01/20 07:28:24;;;;;;;12.23;7.38;;;;;;;;;;5078659;28;20056;-75
2022/01/20 07:30:50;;;;;;;11.82;7.65;;;;;;;;;;5078406;28;20048;-75
2022/01/20 07:33:19;;;;;;;13.02;8.30;;;;;;;;;;5077856;28;20483;-75
2022/01/20 07:35:46;;;;;;;9.43;6.65;;;;;;;;;;5078118;28;20028;-75
2022/01/20 07:38:12;;;;;;;9.00;6.53;;;;;;;;;;5078150;28;20040;-76
2022/01/20 07:40:38;;;;;;;10.60;7.38;;;;;;;;;;5077987;28;20041;-75
2022/01/20 07:43:05;;;;;;;5.43;3.63;;;;;;;;;;5078072;28;20506;-75
2022/01/20 07:45:31;;;;;;;3.88;2.70;;;;;;;;;;5077969;28;20047;-75
2022/01/20 07:47:57;;;;;;;3.60;2.47;;;;;;;;;;5077854;28;20123;-75
2022/01/20 07:50:23;;;;;;;2.25;1.80;;;;;;;;;;5077889;28;20040;-75
2022/01/20 07:52:49;;;;;;;3.03;2.25;;;;;;;;;;5077239;28;20047;-75
2022/01/20 07:55:16;;;;;;;2.35;2.00;;;;;;;;;;5077774;28;20028;-75
2022/01/20 07:57:42;;;;;;;3.42;2.00;;;;;;;;;;5077684;28;20033;-75
2022/01/20 08:00:08;;;;;;;2.63;2.10;;;;;;;;;;5077236;28;20045;-76
2022/01/20 08:02:34;;;;;;;2.85;2.28;;;;;;;;;;5077746;28;20033;-76
2022/01/20 08:05:02;;;;;;;2.83;2.05;;;;;;;;;;5077613;28;20045;-75
2022/01/20 08:07:28;;;;;;;3.25;2.15;;;;;;;;;;5076353;28;20037;-75
2022/01/20 08:09:58;;;;;;;2.88;2.33;;;;;;;;;;5076915;28;20071;-75
2022/01/20 08:12:24;;;;;;;1.95;1.73;;;;;;;;;;5076408;28;20189;-75
2022/01/20 08:14:51;;;;;;;2.65;1.88;;;;;;;;;;5057127;28;20111;-76
2022/01/20 08:17:17;;;;;;;3.63;2.22;;;;;;;;;;5075110;28;20127;-75
2022/01/20 08:19:44;;;;;;;2.33;1.77;;;;;;;;;;5074787;28;20044;-76
2022/01/20 08:22:10;;;;;;;2.58;1.95;;;;;;;;;;5074880;28;20062;-75
2022/01/20 08:24:36;;;;;;;2.25;1.98;;;;;;;;;;5074955;28;20047;-76
2022/01/20 08:27:03;;;;;;;2.65;2.22;;;;;;;;;;5075943;28;20119;-75
2022/01/20 08:29:29;;;;;;;2.30;1.95;;;;;;;;;;5075558;28;20103;-75
2022/01/20 08:31:55;;;;;;;5.95;3.50;;;;;;;;;;5076832;28;20116;-75
2022/01/20 08:34:21;;;;;;;5.03;3.22;;;;;;;;;;5076665;28;20120;-75
2022/01/20 08:36:49;;;;;;;4.45;3.40;;;;;;;;;;5076653;28;20041;-75
2022/01/20 08:41:57;;;;;;;4.00;3.00;;;;;;;;;;5076550;28;20107;-75
2022/01/20 08:44:23;;;;;;;4.80;3.00;;;;;;;;;;5076265;28;20468;-75
2022/01/20 08:46:50;;;;;;;3.95;2.50;;;;;;;;;;5076379;28;20040;-75
2022/01/20 08:49:16;;;;;;;4.70;2.97;;;;;;;;;;5076067;28;20032;-72
2022/01/20 08:51:42;;;;;;;3.47;2.72;;;;;;;;;;5074184;28;20094;-75
2022/01/20 08:54:09;;;;;;;3.58;2.58;;;;;;;;;;5073971;28;20060;-75
2022/01/20 08:56:35;;;;;;;3.63;2.80;;;;;;;;;;5072778;28;20364;-76
2022/01/20 08:59:05;;;;;;;4.55;3.25;;;;;;;;;;5074217;28;20044;-76
2022/01/20 09:01:31;;;;;;;3.85;2.80;;;;;;;;;;5072093;28;20048;-76
2022/01/20 09:03:57;;;;;;;2.85;2.25;;;;;;;;;;5072617;28;20033;-76
2022/01/20 09:06:24;;;;;;;3.47;2.63;;;;;;;;;;5073974;28;20048;-75
2022/01/20 09:08:50;;;;;;;2.65;2.20;;;;;;;;;;5074445;28;20041;-74
2022/01/20 09:11:22;;;;;;;3.05;2.47;;;;;;;;;;5094514;28;20035;-75
2022/01/20 09:16:35;;;;;;;2.90;2.38;;;;;;;;;;5095968;28;20119;-74
2022/01/20 09:19:01;;;;;;;3.42;2.33;;;;;;;;;;5096589;28;20044;-74
2022/01/20 09:21:28;;;;;;;6.03;2.50;;;;;;;;;;5096190;28;20024;-73
2022/01/20 09:23:55;;;;;;;2.63;2.30;;;;;;;;;;5096318;28;20096;-74
2022/01/20 09:26:22;;;;;;;4.13;2.42;;;;;;;;;;5096478;28;20035;-74
2022/01/20 09:28:48;;;;;;;4.85;2.90;;;;;;;;;;5080404;28;20502;-73
2022/01/20 09:31:14;;;;;;;3.58;2.63;;;;;;;;;;5075631;28;20036;-72
2022/01/20 09:33:40;;;;;;;5.95;3.80;;;;;;;;;;5075455;28;20040;-73
2022/01/20 09:36:12;;;;;;;5.10;3.88;;;;;;;;;;5075163;28;20028;-73
2022/01/20 09:38:38;;;;;;;7.28;4.47;;;;;;;;;;5074552;28;20111;-73
2022/01/20 09:41:05;;;;;;;5.72;4.30;;;;;;;;;;5074413;28;20040;-73
2022/01/20 09:43:31;;;;;;;5.15;4.10;;;;;;;;;;5073834;28;20499;-73
2022/01/20 09:45:58;;;;;;;4.47;3.72;;;;;;;;;;5074692;28;20060;-73
2022/01/20 09:48:24;;;;;;;5.00;3.92;;;;;;;;;;5072110;28;20048;-74
2022/01/20 09:50:51;;;;;;;4.38;3.42;;;;;;;;;;5074138;28;20110;-73
2022/01/20 09:53:18;;;;;;;6.20;3.63;;;;;;;;;;5069444;28;20033;-75
2022/01/20 09:55:45;;;;;;;6.32;3.90;;;;;;;;;;5073089;28;20059;-76
2022/01/20 09:58:12;;;;;;;5.60;4.25;;;;;;;;;;5074021;28;20047;-75
2022/01/20 10:00:39;;;;;;;4.95;3.95;;;;;;;;;;5074732;28;20078;-75
2022/01/20 10:03:09;;;;;;;4.65;3.60;;;;;;;;;;5074250;28;20040;-74
2022/01/20 10:05:37;;;;;;;5.15;3.67;;;;;;;;;;5072061;28;20063;-75
2022/01/20 10:08:05;;;;;;;4.57;3.47;;;;;;;;;;5073977;28;20044;-75
2022/01/20 10:10:41;;;;;;;5.15;3.90;;;;;;;;;;5073877;28;20482;-74
2022/01/20 10:13:08;;;;;;;3.63;3.10;;;;;;;;;;5073713;28;20549;-75
2022/01/20 10:15:36;;;;;;;4.70;3.47;;;;;;;;;;5073892;28;20119;-76
2022/01/20 10:18:15;;;;;;;4.75;3.00;;;;;;;;;;5070002;28;20513;-76
2022/01/20 10:21:05;;;;;;;4.95;3.83;;;;;;;;;;5073461;28;20044;-76
2022/01/20 10:23:47;;;;;;;5.32;3.05;;;;;;;;;;5067236;28;20040;-76
2022/01/20 10:26:19;;;;;;;4.28;3.05;;;;;;;;;;5073387;28;20032;-76
2022/01/20 10:28:56;;;;;;;5.00;2.80;;;;;;;;;;5073538;28;20041;-74
2022/01/20 10:31:32;;;;;;;3.78;2.70;;;;;;;;;;5071243;28;20051;-74
2022/01/20 10:33:58;;;;;;;4.38;2.50;;;;;;;;;;5071246;28;20047;-75
2022/01/20 10:36:24;;;;;;;3.75;2.42;;;;;;;;;;5072636;28;20036;-75
2022/01/20 10:38:52;;;;;;;3.10;2.28;;;;;;;;;;5073933;28;20136;-74
2022/01/20 10:41:34;;;;;;;3.15;2.30;;;;;;;;;;5071351;28;20040;-74
2022/01/20 10:44:05;;;;;;;4.47;2.75;;;;;;;;;;5071204;28;20040;-75
2022/01/20 10:46:42;;;;;;;3.05;1.90;;;;;;;;;;5073235;28;20525;-75
2022/01/20 10:49:08;;;;;;;1.92;1.55;;;;;;;;;;5071995;28;20044;-74
2022/01/20 10:51:34;;;;;;;2.90;1.38;;;;;;;;;;5072690;28;20505;-75
2022/01/20 10:54:01;;;;;;;2.80;1.10;;;;;;;;;;5079411;28;20038;-73
2022/01/20 10:56:27;;;;;;;1.70;1.13;;;;;;;;;;5091248;28;20101;-74
2022/01/20 10:58:54;;;;;;;2.25;1.70;;;;;;;;;;5092473;28;20051;-73
2022/01/20 11:01:20;;;;;;;1.52;1.00;;;;;;;;;;5092705;28;20036;-74
2022/01/20 11:03:46;;;;;;;1.42;1.00;;;;;;;;;;5092521;28;20040;-74
2022/01/20 11:06:12;;;;;;;2.72;1.27;;;;;;;;;;5093426;28;20078;-74
2022/01/20 11:08:40;;;;;;;1.30;1.20;;;;;;;;;;5094443;28;20028;-74
2022/01/20 11:11:07;;;;;;;1.88;1.50;;;;;;;;;;5076858;28;20064;-75
2022/01/20 11:13:33;;;;;;;1.92;1.38;;;;;;;;;;5072406;28;20087;-74
2022/01/20 11:15:59;;;;;;;1.67;1.33;;;;;;;;;;5072927;28;20043;-73
2022/01/20 11:18:29;;;;;;;2.75;1.52;;;;;;;;;;5073194;28;20050;-74
2022/01/20 11:20:56;;;;;;;2.20;1.23;;;;;;;;;;5073557;28;20036;-74
2022/01/20 11:23:22;;;;;;;1.58;1.35;;;;;;;;;;5067356;28;20118;-75
2022/01/20 11:25:49;;;;;;;1.70;1.30;;;;;;;;;;5072819;28;20032;-74
2022/01/20 11:28:19;;;;;;;4.78;3.42;;;;;;;;;;5072805;28;20041;-74
2022/01/20 11:31:04;;;;;;;3.33;2.17;;;;;;;;;;5073519;28;20111;-74
2022/01/20 11:33:34;;;;;;;4.38;2.80;;;;;;;;;;5072021;28;20032;-74
2022/01/20 11:36:00;;;;;;;3.63;2.10;;;;;;;;;;5070858;28;20085;-74
2022/01/20 11:38:38;;;;;;;2.30;1.92;;;;;;;;;;5072476;28;20076;-74
2022/01/20 11:41:05;;;;;;;1.90;1.38;;;;;;;;;;5070286;28;20107;-74
2022/01/20 11:43:35;;;;;;;2.05;1.15;;;;;;;;;;5084588;28;20360;-74
2022/01/20 11:46:10;;;;;;;1.13;1.02;;;;;;;;;;5072071;28;20047;-74
2022/01/20 11:48:36;;;;;;;1.80;1.30;;;;;;;;;;5077530;28;20063;-73
2022/01/20 11:51:11;;;;;;;1.67;1.52;;;;;;;;;;5091778;28;20036;-73
2022/01/20 11:53:41;;;;;;;2.80;1.85;;;;;;;;;;5092937;28;20053;-73
2022/01/20 11:56:08;;;;;;;3.08;1.70;;;;;;;;;;5093472;28;20059;-74
2022/01/20 11:58:34;;;;;;;1.33;1.20;;;;;;;;;;5093852;28;20054;-73
2022/01/20 12:01:07;;;;;;;2.03;1.40;;;;;;;;;;5094083;28;20093;-74
2022/01/20 12:03:34;;;;;;;1.90;1.40;;;;;;;;;;5094850;28;20028;-73
2022/01/20 12:06:04;;;;;;;1.85;1.25;;;;;;;;;;5097662;28;20494;-74
2022/01/20 12:08:31;;;;;;;3.13;2.05;;;;;;;;;;5097463;28;20048;-74
2022/01/20 12:11:05;;;;;;;2.15;1.60;;;;;;;;;;5097110;28;20058;-74
2022/01/20 12:13:31;;;;;;;1.25;1.15;;;;;;;;;;5097168;28;20036;-73
2022/01/20 12:16:01;;;;;;;2.70;2.17;;;;;;;;;;5077181;28;20039;-70
2022/01/20 12:18:28;;;;;;;2.08;1.80;;;;;;;;;;5076974;28;20040;-76
2022/01/20 12:20:54;;;;;;;3.03;2.42;;;;;;;;;;5076728;28;20033;-75
2022/01/20 12:23:24;;;;;;;2.05;1.20;;;;;;;;;;5077002;28;20044;-76
2022/01/20 12:25:50;;;;;;;1.65;1.20;;;;;;;;;;5077257;28;20029;-76
2022/01/20 12:28:17;;;;;;;1.70;1.40;;;;;;;;;;5077016;28;20425;-75
2022/01/20 12:30:47;;;;;;;2.30;1.55;;;;;;;;;;5077290;28;20028;-75
2022/01/20 12:33:15;;;;;;;2.78;1.70;;;;;;;;;;5076470;28;20040;-75
2022/01/20 12:35:43;;;;;;;2.13;1.67;;;;;;;;;;5076522;28;20036;-75
2022/01/20 12:38:16;;;;;;;2.47;1.67;;;;;;;;;;5076442;28;20044;-75
2022/01/20 12:40:43;;;;;;;1.88;1.35;;;;;;;;;;5077060;28;20540;-74
2022/01/20 12:43:09;;;;;;;2.83;1.70;;;;;;;;;;5076560;28;20032;-76
2022/01/20 12:48:20;;;;;;;3.20;2.00;;;;;;;;;;5074565;28;20086;-75
2022/01/20 12:50:56;;;;;;;4.18;2.47;;;;;;;;;;5063944;28;20028;-75
2022/01/20 12:53:35;;;;;;;6.80;2.50;;;;;;;;;;5074996;28;20121;-75
2022/01/20 12:56:02;;;;;;;7.43;3.47;;;;;;;;;;5075031;28;20028;-75
2022/01/20 12:58:28;;;;;;;2.50;2.08;;;;;;;;;;5069275;28;20465;-76
2022/01/20 13:01:01;;;;;;;11.65;3.92;;;;;;;;;;5069850;28;20047;-75
2022/01/20 13:03:41;;;;;;;4.47;2.03;;;;;;;;;;5074974;28;20032;-75
2022/01/20 13:06:10;;;;;;;3.80;2.20;;;;;;;;;;5075950;28;20045;-75
2022/01/20 13:08:40;;;;;;;3.83;2.78;;;;;;;;;;5069103;28;20028;-74
2022/01/20 13:11:13;;;;;;;4.07;3.20;;;;;;;;;;5061932;28;20044;-74
2022/01/20 13:13:39;;;;;;;10.02;5.03;;;;;;;;;;5055231;28;20049;-75
2022/01/20 13:16:15;;;;;;;9.15;4.65;;;;;;;;;;5055256;28;20068;-75
2022/01/20 13:18:51;;;;;;;4.82;3.67;;;;;;;;;;5055166;28;20400;-75
2022/01/20 13:21:18;;;;;;;7.05;4.93;;;;;;;;;;5054548;28;20032;-74
2022/01/20 13:23:57;;;;;;;8.77;5.13;;;;;;;;;;5055784;28;20543;-74
2022/01/20 13:26:25;;;;;;;8.48;4.90;;;;;;;;;;5055516;28;20480;-74
2022/01/20 13:29:05;;;;;;;4.57;3.47;;;;;;;;;;5059833;28;20101;-74
2022/01/20 13:31:31;;;;;;;4.03;3.10;;;;;;;;;;5071398;28;20034;-74
2022/01/20 13:34:06;;;;;;;4.45;2.50;;;;;;;;;;5074814;28;20063;-74
2022/01/20 13:36:37;;;;;;;4.55;2.97;;;;;;;;;;5072650;28;20066;-74
2022/01/20 13:39:03;;;;;;;4.43;3.50;;;;;;;;;;5074797;28;20075;-74
2022/01/20 13:41:29;;;;;;;3.97;2.95;;;;;;;;;;5074240;28;20036;-75
2022/01/20 13:46:47;;;;;;;4.55;2.40;;;;;;;;;;5071589;28;20040;-77
2022/01/20 13:49:19;;;;;;;4.80;2.78;;;;;;;;;;5072653;28;20048;-74
2022/01/20 13:51:48;;;;;;;5.30;3.35;;;;;;;;;;5071245;28;20048;-76
2022/01/20 13:54:16;;;;;;;6.93;3.45;;;;;;;;;;5070572;28;20111;-76
2022/01/20 13:56:52;;;;;;;7.20;4.18;;;;;;;;;;5070195;28;20090;-76
2022/01/20 13:59:18;;;;;;;8.68;4.30;;;;;;;;;;5072438;28;20032;-76
2022/01/20 14:01:45;;;;;;;6.68;4.25;;;;;;;;;;5071840;28;20580;-77
2022/01/20 14:04:11;;;;;;;5.45;3.67;;;;;;;;;;5072501;28;20047;-77
2022/01/20 14:06:37;;;;;;;6.00;4.35;;;;;;;;;;5072985;28;20433;-76
2022/01/20 14:09:03;;;;;;;6.82;4.47;;;;;;;;;;5076658;28;20066;-74
2022/01/20 14:11:29;;;;;;;8.25;4.30;;;;;;;;;;5090342;28;20123;-74
2022/01/20 14:13:55;;;;;;;5.93;3.67;;;;;;;;;;5093952;28;20079;-74
2022/01/20 14:16:22;;;;;;;5.05;3.58;;;;;;;;;;5095413;28;20020;-76
2022/01/20 14:18:56;;;;;;;9.02;3.80;;;;;;;;;;5094358;28;20506;-74
2022/01/20 14:21:22;;;;;;;4.65;3.78;;;;;;;;;;5094227;28;20036;-74
2022/01/20 14:23:49;;;;;;;5.55;4.07;;;;;;;;;;5095325;28;20040;-75
2022/01/20 14:26:22;;;;;;;4.45;3.45;;;;;;;;;;5094634;28;20060;-75
2022/01/20 14:28:48;;;;;;;5.75;3.67;;;;;;;;;;5094717;28;20042;-76
2022/01/20 14:31:15;;;;;;;5.68;3.90;;;;;;;;;;5093866;28;20035;-77
2022/01/20 14:33:42;;;;;;;6.18;4.53;;;;;;;;;;5094404;28;20486;-74
2022/01/20 14:36:08;;;;;;;5.72;4.28;;;;;;;;;;5094468;28;20028;-77
2022/01/20 14:38:34;;;;;;;6.25;4.88;;;;;;;;;;5094876;28;20039;-75
2022/01/20 14:41:00;;;;;;;6.88;5.13;;;;;;;;;;5094757;28;20071;-75
2022/01/20 14:43:27;;;;;;;8.95;5.93;;;;;;;;;;5094580;28;20032;-74
2022/01/20 14:45:53;;;;;;;8.02;6.43;;;;;;;;;;5093172;28;20024;-75
2022/01/20 14:48:20;;;;;;;5.88;5.03;;;;;;;;;;5093165;28;20035;-75
2022/01/20 14:50:46;;;;;;;6.15;4.68;;;;;;;;;;5093786;28;20044;-74
2022/01/20 14:53:12;;;;;;;7.38;5.18;;;;;;;;;;5093532;28;20483;-75
2022/01/20 14:55:38;;;;;;;7.80;5.18;;;;;;;;;;5094320;28;20040;-76
2022/01/20 14:58:05;;;;;;;6.05;4.07;;;;;;;;;;5094186;28;20040;-75
2022/01/20 15:00:31;;;;;;;5.05;3.72;;;;;;;;;;5094751;28;20051;-74
2022/01/20 15:02:57;;;;;;;6.57;4.35;;;;;;;;;;5108894;28;20040;-74
2022/01/20 15:05:24;;;;;;;4.95;4.10;;;;;;;;;;5093036;28;20494;-74
2022/01/20 15:07:50;;;;;;;5.15;4.00;;;;;;;;;;5093417;28;20036;-74
2022/01/20 15:10:17;;;;;;;5.18;3.88;;;;;;;;;;5093032;28;20550;-74
2022/01/20 15:12:44;;;;;;;8.43;4.50;;;;;;;;;;5093768;28;20081;-74
2022/01/20 15:15:10;;;;;;;6.45;4.40;;;;;;;;;;5093743;28;20466;-73
2022/01/20 15:17:37;;;;;;;6.05;4.53;;;;;;;;;;5093602;28;20128;-75
2022/01/20 15:20:04;;;;;;;7.57;5.40;;;;;;;;;;5094258;28;20044;-74
2022/01/20 15:22:30;;;;;;;7.15;5.32;;;;;;;;;;5092715;28;20058;-74
2022/01/20 15:24:56;;;;;;;7.20;5.60;;;;;;;;;;5094070;28;20047;-74
2022/01/20 15:27:23;;;;;;;9.07;5.50;;;;;;;;;;5094085;28;20036;-75
2022/01/20 15:29:49;;;;;;;8.57;5.72;;;;;;;;;;5109628;28;20031;-75
2022/01/20 15:32:15;;;;;;;9.85;5.88;;;;;;;;;;5108716;28;20126;-75
2022/01/20 15:34:41;;;;;;;9.30;5.90;;;;;;;;;;5091849;28;20119;-74
2022/01/20 15:37:07;;;;;;;9.43;6.00;;;;;;;;;;5070980;28;20495;-76
2022/01/20 15:39:33;;;;;;;9.60;6.50;;;;;;;;;;5074122;28;20033;-75
2022/01/20 15:42:00;;;;;;;8.32;5.57;;;;;;;;;;5076120;28;20093;-76
2022/01/20 15:44:26;;;;;;;9.20;5.93;;;;;;;;;;5077737;28;20036;-75
2022/01/20 15:46:52;;;;;;;10.18;6.38;;;;;;;;;;5077592;28;20029;-75
2022/01/20 15:49:18;;;;;;;8.48;6.15;;;;;;;;;;5076976;28;20032;-75
2022/01/20 15:51:44;;;;;;;8.40;5.35;;;;;;;;;;5077687;28;20491;-75
2022/01/20 15:54:11;;;;;;;7.90;5.07;;;;;;;;;;5077480;28;20040;-75
2022/01/20 15:56:37;;;;;;;8.73;5.85;;;;;;;;;;5077245;28;20040;-76